createdAt,value
2023-04-29T00:02:20.595Z,4.17
2023-04-29T00:04:48.892Z,4.13
2023-04-29T00:07:18.378Z,3.93
2023-04-29T00:09:46.296Z,3.87
2023-04-29T00:12:14.200Z,3.93
2023-04-29T00:14:43.285Z,3.70
2023-04-29T00:17:11.258Z,3.50
2023-04-29T00:19:39.410Z,3.80
2023-04-29T00:22:07.286Z,3.97
2023-04-29T00:24:38.556Z,3.53
2023-04-29T00:27:06.918Z,3.13
2023-04-29T00:29:34.961Z,3.50
2023-04-29T00:32:03.548Z,3.83
2023-04-29T00:34:31.446Z,3.43
2023-04-29T00:36:59.522Z,2.93
2023-04-29T00:39:27.719Z,3.20
2023-04-29T00:41:57.002Z,3.00
2023-04-29T00:44:24.950Z,2.83
2023-04-29T00:46:52.889Z,2.87
2023-04-29T00:49:20.816Z,2.63
2023-04-29T00:51:48.693Z,3.00
2023-04-29T00:54:16.660Z,3.00
2023-04-29T00:56:44.566Z,2.87
2023-04-29T00:59:15.503Z,3.07
2023-04-29T01:01:44.722Z,2.97
2023-04-29T01:04:13.499Z,3.00
2023-04-29T01:06:57.162Z,3.00
2023-04-29T01:09:36.166Z,2.47
2023-04-29T01:12:10.980Z,2.60
2023-04-29T01:14:40.445Z,2.53
2023-04-29T01:17:12.886Z,2.67
2023-04-29T01:19:45.507Z,2.50
2023-04-29T01:22:14.553Z,2.27
2023-04-29T01:24:43.996Z,3.07
2023-04-29T01:27:15.683Z,2.50
2023-04-29T01:29:51.049Z,2.60
2023-04-29T01:32:20.101Z,2.40
2023-04-29T01:34:50.785Z,2.40
2023-04-29T01:37:21.188Z,2.30
2023-04-29T01:40:06.812Z,2.23
2023-04-29T01:42:41.104Z,2.30
2023-04-29T01:45:15.219Z,2.27
2023-04-29T01:47:43.232Z,2.30
2023-04-29T01:50:12.399Z,2.23
2023-04-29T01:52:40.881Z,2.30
2023-04-29T01:55:11.476Z,2.00
2023-04-29T01:58:08.656Z,1.90
2023-04-29T02:01:01.016Z,1.83
2023-04-29T02:03:31.977Z,2.30
2023-04-29T02:06:02.468Z,2.00
2023-04-29T02:08:30.506Z,2.53
2023-04-29T02:11:00.837Z,1.97
2023-04-29T02:13:55.649Z,1.80
2023-04-29T02:16:24.363Z,2.00
2023-04-29T02:18:59.103Z,1.90
2023-04-29T02:21:27.132Z,1.90
2023-04-29T02:23:55.359Z,1.70
2023-04-29T02:26:26.741Z,1.60
2023-04-29T02:28:57.938Z,1.80
2023-04-29T02:31:25.984Z,1.70
2023-04-29T02:33:55.480Z,2.07
2023-04-29T02:36:24.576Z,1.80
2023-04-29T02:38:55.221Z,1.50
2023-04-29T02:41:23.252Z,1.80
2023-04-29T02:43:53.000Z,1.57
2023-04-29T02:46:21.033Z,1.60
2023-04-29T02:48:49.187Z,1.60
2023-04-29T02:51:17.066Z,1.80
2023-04-29T02:53:44.985Z,1.90
2023-04-29T02:56:13.047Z,1.50
2023-04-29T02:58:42.206Z,1.77
2023-04-29T03:01:11.545Z,1.60
2023-04-29T03:03:40.046Z,1.57
2023-04-29T03:06:08.372Z,1.80
2023-04-29T03:08:36.289Z,1.47
2023-04-29T03:11:04.466Z,1.40
2023-04-29T03:13:32.651Z,1.57
2023-04-29T03:16:01.194Z,1.27
2023-04-29T03:18:30.704Z,1.50
2023-04-29T03:20:58.702Z,1.53
2023-04-29T03:23:26.789Z,2.23
2023-04-29T03:25:56.774Z,2.43
2023-04-29T03:28:26.140Z,2.30
2023-04-29T03:30:54.098Z,3.00
2023-04-29T03:33:22.066Z,8.63
2023-04-29T03:35:51.713Z,8.70
2023-04-29T03:38:34.552Z,8.23
2023-04-29T03:41:02.641Z,9.03
2023-04-29T03:43:32.564Z,9.33
2023-04-29T03:46:00.815Z,14.43
2023-04-29T03:48:28.777Z,12.23
2023-04-29T03:50:58.058Z,14.43
2023-04-29T03:53:26.242Z,11.27
2023-04-29T03:55:54.656Z,13.80
2023-04-29T03:58:23.670Z,14.00
2023-04-29T04:00:52.964Z,12.10
2023-04-29T04:03:26.066Z,14.20
2023-04-29T04:05:56.170Z,12.33
2023-04-29T04:08:25.683Z,10.97
2023-04-29T04:11:02.866Z,11.80
2023-04-29T04:13:37.927Z,17.43
2023-04-29T04:16:06.782Z,13.60
2023-04-29T04:18:34.868Z,12.37
2023-04-29T04:21:07.129Z,13.57
2023-04-29T04:23:40.202Z,14.17
2023-04-29T04:26:09.252Z,11.13
2023-04-29T04:28:55.636Z,12.37
2023-04-29T04:31:49.490Z,11.13
2023-04-29T04:34:19.355Z,12.70
2023-04-29T04:36:49.878Z,10.97
2023-04-29T04:39:19.361Z,14.23
2023-04-29T04:41:47.805Z,12.63
2023-04-29T04:44:16.512Z,11.03
2023-04-29T04:47:06.199Z,12.77
2023-04-29T04:49:44.042Z,9.07
2023-04-29T04:52:13.008Z,11.90
2023-04-29T04:54:42.430Z,11.10
2023-04-29T04:57:17.584Z,11.00
2023-04-29T04:59:46.093Z,8.93
2023-04-29T05:02:14.040Z,11.00
2023-04-29T05:04:41.968Z,10.60
2023-04-29T05:07:10.696Z,9.90
2023-04-29T05:09:59.328Z,12.90
2023-04-29T05:12:30.685Z,7.70
2023-04-29T05:14:59.981Z,10.27
2023-04-29T05:17:29.372Z,8.23
2023-04-29T05:19:57.349Z,10.97
2023-04-29T05:22:27.795Z,9.07
2023-04-29T05:25:02.425Z,10.30
2023-04-29T05:27:33.019Z,8.50
2023-04-29T05:30:01.432Z,7.97
2023-04-29T05:32:29.539Z,8.93
2023-04-29T05:34:57.688Z,8.97
2023-04-29T05:37:30.628Z,10.07
2023-04-29T05:40:06.056Z,5.00
2023-04-29T05:42:36.680Z,8.80
2023-04-29T05:45:04.989Z,8.80
2023-04-29T05:47:34.146Z,7.63
2023-04-29T05:50:02.656Z,7.07
2023-04-29T05:52:30.918Z,5.60
2023-04-29T05:55:00.061Z,6.23
2023-04-29T05:57:28.177Z,7.17
2023-04-29T06:00:00.299Z,7.47
2023-04-29T06:02:28.669Z,6.27
2023-04-29T06:04:56.991Z,6.30
2023-04-29T06:07:42.442Z,6.30
2023-04-29T06:10:33.153Z,7.23
2023-04-29T06:13:01.242Z,5.30
2023-04-29T06:15:30.487Z,5.67
2023-04-29T06:17:58.530Z,7.03
2023-04-29T06:20:27.013Z,5.63
2023-04-29T06:22:54.947Z,8.50
2023-04-29T06:25:22.928Z,5.83
2023-04-29T06:27:52.565Z,5.17
2023-04-29T06:30:23.987Z,9.57
2023-04-29T06:32:53.582Z,6.13
2023-04-29T06:35:21.933Z,4.83
2023-04-29T06:38:15.577Z,4.73
2023-04-29T06:41:01.890Z,7.77
2023-04-29T06:43:29.840Z,4.70
2023-04-29T06:46:16.374Z,6.30
2023-04-29T06:49:00.532Z,5.03
2023-04-29T06:51:29.300Z,6.60
2023-04-29T06:53:59.214Z,6.20
2023-04-29T06:56:27.258Z,4.33
2023-04-29T06:58:55.256Z,5.43
2023-04-29T07:01:23.216Z,5.30
2023-04-29T07:03:52.397Z,5.17
2023-04-29T07:06:21.973Z,5.43
2023-04-29T07:08:50.191Z,3.90
2023-04-29T07:11:19.224Z,3.90
2023-04-29T07:13:47.262Z,5.13
2023-04-29T07:16:20.520Z,5.77
2023-04-29T07:18:48.498Z,4.50
2023-04-29T07:21:16.460Z,5.30
2023-04-29T07:23:45.931Z,4.47
2023-04-29T07:26:15.841Z,5.20
2023-04-29T07:28:45.828Z,4.53
2023-04-29T07:31:14.380Z,4.40
2023-04-29T07:33:42.475Z,4.57
2023-04-29T07:36:12.110Z,4.60
2023-04-29T07:38:40.184Z,5.53
2023-04-29T07:41:09.406Z,4.10
2023-04-29T07:43:37.365Z,4.60
2023-04-29T07:46:08.847Z,5.70
2023-04-29T07:48:39.336Z,3.83
2023-04-29T07:51:08.961Z,5.30
2023-04-29T07:53:36.989Z,4.00
2023-04-29T07:56:07.492Z,4.57
2023-04-29T07:58:36.936Z,4.83
2023-04-29T08:01:09.187Z,3.93
2023-04-29T08:03:40.463Z,4.03
2023-04-29T08:06:09.751Z,4.47
2023-04-29T08:08:37.829Z,4.33
2023-04-29T08:11:06.767Z,4.23
2023-04-29T08:13:36.131Z,4.23
2023-04-29T08:16:04.137Z,3.93
2023-04-29T08:18:32.395Z,4.50
2023-04-29T08:21:00.996Z,3.60
2023-04-29T08:23:29.026Z,4.27
2023-04-29T08:25:56.983Z,3.93
2023-04-29T08:28:24.888Z,3.93
2023-04-29T08:30:54.201Z,3.90
2023-04-29T08:33:22.227Z,3.60
2023-04-29T08:35:50.260Z,3.80
2023-04-29T08:38:18.161Z,4.17
2023-04-29T08:40:47.006Z,4.17
2023-04-29T08:43:15.164Z,4.20
2023-04-29T08:45:43.245Z,3.40
2023-04-29T08:48:12.710Z,3.80
2023-04-29T08:50:42.723Z,4.20
2023-04-29T08:53:11.108Z,4.30
2023-04-29T08:55:42.473Z,4.57
2023-04-29T08:58:11.319Z,4.10
2023-04-29T09:00:39.400Z,3.57
2023-04-29T09:03:15.359Z,3.53
2023-04-29T09:05:43.401Z,4.23
2023-04-29T09:08:12.428Z,4.57
2023-04-29T09:10:40.540Z,4.30
2023-04-29T09:13:08.460Z,3.97
2023-04-29T09:15:38.050Z,3.70
2023-04-29T09:18:08.987Z,3.67
2023-04-29T09:20:38.386Z,3.97
2023-04-29T09:23:06.355Z,4.17
2023-04-29T09:25:36.416Z,4.03
2023-04-29T09:28:16.045Z,4.40
2023-04-29T09:30:47.173Z,3.80
2023-04-29T09:33:17.436Z,4.00
2023-04-29T09:35:48.701Z,4.27
2023-04-29T09:38:17.073Z,3.60
2023-04-29T09:40:57.460Z,4.30
2023-04-29T09:43:27.217Z,4.00
2023-04-29T09:45:55.434Z,3.73
2023-04-29T09:48:26.411Z,3.67
2023-04-29T09:51:02.905Z,3.93
2023-04-29T09:53:31.685Z,3.80
2023-04-29T09:56:00.851Z,3.80
2023-04-29T09:58:30.103Z,3.80
2023-04-29T10:01:00.159Z,3.40
2023-04-29T10:03:33.487Z,3.73
2023-04-29T10:06:03.827Z,3.80
2023-04-29T10:08:31.923Z,3.80
2023-04-29T10:11:01.109Z,3.67
2023-04-29T10:13:29.451Z,3.47
2023-04-29T10:16:02.069Z,3.63
2023-04-29T10:18:38.047Z,4.00
2023-04-29T10:21:08.756Z,3.70
2023-04-29T10:23:37.126Z,3.27
2023-04-29T10:26:05.288Z,3.70
2023-04-29T10:28:33.562Z,3.60
2023-04-29T10:31:03.038Z,3.83
2023-04-29T10:33:33.331Z,3.77
2023-04-29T10:36:02.100Z,3.23
2023-04-29T10:38:41.618Z,3.70
2023-04-29T10:41:11.972Z,3.43
2023-04-29T10:43:39.954Z,3.63
2023-04-29T10:46:23.767Z,3.80
2023-04-29T10:48:57.747Z,3.13
2023-04-29T10:51:33.117Z,3.60
2023-04-29T10:54:08.576Z,3.00
2023-04-29T10:56:37.826Z,3.23
2023-04-29T10:59:05.777Z,3.67
2023-04-29T11:01:44.296Z,3.40
2023-04-29T11:04:12.614Z,3.17
2023-04-29T11:06:42.124Z,3.37
2023-04-29T11:09:14.204Z,3.33
2023-04-29T11:11:43.915Z,3.60
2023-04-29T11:14:12.207Z,4.00
2023-04-29T11:16:41.307Z,3.80
2023-04-29T11:19:09.948Z,3.33
2023-04-29T11:21:39.546Z,3.40
2023-04-29T11:24:07.786Z,3.77
2023-04-29T11:26:37.240Z,3.00
2023-04-29T11:29:11.360Z,3.17
2023-04-29T11:31:39.964Z,3.70
2023-04-29T11:34:08.316Z,3.47
2023-04-29T11:36:36.910Z,2.97
2023-04-29T11:39:06.978Z,3.00
2023-04-29T11:41:35.716Z,2.93
2023-04-29T11:44:07.504Z,3.17
2023-04-29T11:46:35.521Z,3.03
2023-04-29T11:49:06.059Z,3.57
2023-04-29T11:51:33.928Z,3.07
2023-04-29T11:54:01.863Z,2.80
2023-04-29T11:56:29.794Z,3.10
2023-04-29T11:58:57.725Z,3.00
2023-04-29T12:01:27.997Z,3.10
2023-04-29T12:03:59.853Z,2.83
2023-04-29T12:06:29.923Z,2.93
2023-04-29T12:09:00.182Z,3.13
2023-04-29T12:11:28.185Z,2.93
2023-04-29T12:13:57.874Z,3.17
2023-04-29T12:16:29.352Z,3.03
2023-04-29T12:18:57.582Z,2.90
2023-04-29T12:21:28.468Z,3.20
2023-04-29T12:23:59.989Z,2.90
2023-04-29T12:26:29.617Z,2.60
2023-04-29T12:28:58.345Z,2.77
2023-04-29T12:31:34.604Z,2.53
2023-04-29T12:34:09.133Z,2.80
2023-04-29T12:36:43.125Z,2.70
2023-04-29T12:39:11.930Z,2.50
2023-04-29T12:41:40.813Z,2.70
2023-04-29T12:44:10.608Z,2.43
2023-04-29T12:46:40.599Z,2.43
2023-04-29T12:49:08.841Z,2.37
2023-04-29T12:51:36.856Z,2.70
2023-04-29T12:54:06.655Z,2.70
2023-04-29T12:56:34.765Z,2.67
2023-04-29T12:59:08.908Z,2.50
2023-04-29T13:01:36.907Z,2.53
2023-04-29T13:04:08.929Z,2.53
2023-04-29T13:06:39.488Z,2.77
2023-04-29T13:09:17.955Z,2.70
2023-04-29T13:11:47.096Z,2.50
2023-04-29T13:14:15.701Z,2.27
2023-04-29T13:16:43.732Z,2.50
2023-04-29T13:21:46.717Z,2.50
2023-04-29T13:24:14.698Z,2.63
2023-04-29T13:26:42.629Z,2.50
2023-04-29T13:29:10.681Z,2.00
2023-04-29T13:31:38.854Z,2.53
2023-04-29T13:34:09.650Z,2.30
2023-04-29T13:36:39.122Z,2.13
2023-04-29T13:39:07.391Z,2.07
2023-04-29T13:41:37.350Z,2.20
2023-04-29T13:44:11.852Z,2.50
2023-04-29T13:46:52.409Z,2.20
2023-04-29T13:49:53.732Z,2.10
2023-04-29T13:53:01.750Z,2.10
2023-04-29T13:55:43.998Z,2.20
2023-04-29T14:00:45.417Z,2.17
2023-04-29T14:03:08.650Z,1.87
2023-04-29T14:05:36.999Z,1.90
2023-04-29T14:08:06.517Z,2.10
2023-04-29T14:10:41.468Z,1.93
2023-04-29T14:13:09.396Z,2.20
2023-04-29T14:15:37.414Z,2.10
2023-04-29T14:18:08.049Z,2.50
2023-04-29T14:20:36.372Z,1.90
2023-04-29T14:23:05.557Z,1.90
2023-04-29T14:25:37.484Z,2.10
2023-04-29T14:28:07.565Z,2.03
2023-04-29T14:30:35.496Z,1.90
2023-04-29T14:33:03.979Z,1.90
2023-04-29T14:35:32.259Z,1.73
2023-04-29T14:38:00.158Z,2.10
2023-04-29T14:40:30.184Z,3.90
2023-04-29T14:42:59.453Z,1.73
2023-04-29T14:45:28.161Z,1.80
2023-04-29T14:47:56.119Z,1.90
2023-04-29T14:50:25.137Z,1.90
2023-04-29T14:52:53.052Z,2.10
2023-04-29T14:55:23.512Z,2.07
2023-04-29T14:57:51.397Z,1.97
2023-04-29T15:00:21.358Z,2.70
2023-04-29T15:02:50.503Z,2.10
2023-04-29T15:05:18.951Z,2.23
2023-04-29T15:07:47.549Z,2.10
2023-04-29T15:10:15.515Z,1.70
2023-04-29T15:12:43.702Z,1.70
2023-04-29T15:15:11.841Z,2.10
2023-04-29T15:17:41.246Z,2.00
2023-04-29T15:20:10.215Z,1.57
2023-04-29T15:22:41.417Z,1.93
2023-04-29T15:25:10.633Z,1.70
2023-04-29T15:27:38.647Z,2.40
2023-04-29T15:30:07.674Z,1.80
2023-04-29T15:32:35.762Z,1.80
2023-04-29T15:35:06.689Z,2.17
2023-04-29T15:37:37.673Z,1.80
2023-04-29T15:40:07.054Z,2.30
2023-04-29T15:42:35.011Z,3.10
2023-04-29T15:45:04.159Z,2.00
2023-04-29T15:47:32.376Z,2.17
2023-04-29T15:50:00.421Z,4.47
2023-04-29T15:52:29.705Z,1.90
2023-04-29T15:54:58.136Z,1.90
2023-04-29T15:57:28.285Z,2.10
2023-04-29T15:59:56.441Z,1.70
2023-04-29T16:02:27.439Z,1.90
2023-04-29T16:04:55.475Z,1.90
2023-04-29T16:07:23.359Z,1.63
2023-04-29T16:09:52.829Z,1.60
2023-04-29T16:12:21.206Z,2.70
2023-04-29T16:14:49.152Z,2.10
2023-04-29T16:17:17.085Z,2.00
2023-04-29T16:19:45.577Z,1.73
2023-04-29T16:22:13.593Z,1.70
2023-04-29T16:24:41.832Z,4.27
2023-04-29T16:27:11.537Z,1.93
2023-04-29T16:29:39.889Z,1.77
2023-04-29T16:32:07.807Z,2.07
2023-04-29T16:34:35.731Z,1.70
2023-04-29T16:37:03.643Z,1.73
2023-04-29T16:39:31.610Z,2.03
2023-04-29T16:42:00.586Z,2.37
2023-04-29T16:44:29.820Z,2.00
2023-04-29T16:46:57.776Z,2.70
2023-04-29T16:49:26.534Z,2.20
2023-04-29T16:51:57.132Z,2.23
2023-04-29T16:54:25.188Z,2.43
2023-04-29T16:56:53.088Z,2.33
2023-04-29T16:59:22.623Z,2.03
2023-04-29T17:01:51.940Z,2.13
2023-04-29T17:04:19.943Z,2.10
2023-04-29T17:06:49.570Z,2.03
2023-04-29T17:09:21.071Z,2.50
2023-04-29T17:11:50.107Z,2.43
2023-04-29T17:14:17.989Z,1.93
2023-04-29T17:16:45.960Z,2.10
2023-04-29T17:19:15.186Z,2.10
2023-04-29T17:21:46.570Z,2.47
2023-04-29T17:24:14.475Z,2.43
2023-04-29T17:26:43.557Z,2.10
2023-04-29T17:29:12.498Z,3.30
2023-04-29T17:31:45.876Z,2.50
2023-04-29T17:34:19.686Z,5.33
2023-04-29T17:36:47.797Z,3.90
2023-04-29T17:39:18.828Z,8.00
2023-04-29T17:41:46.825Z,4.40
2023-04-29T17:44:16.674Z,2.83
2023-04-29T17:46:44.611Z,8.20
2023-04-29T17:49:12.498Z,7.13
2023-04-29T17:51:41.808Z,5.40
2023-04-29T17:54:10.374Z,8.03
2023-04-29T17:56:38.279Z,5.10
2023-04-29T17:59:06.319Z,4.70
2023-04-29T18:01:34.401Z,3.77
2023-04-29T18:04:02.540Z,3.63
2023-04-29T18:06:31.735Z,4.13
2023-04-29T18:09:01.163Z,4.73
2023-04-29T18:11:29.151Z,4.27
2023-04-29T18:13:57.057Z,4.80
2023-04-29T18:16:25.092Z,3.77
2023-04-29T18:18:55.250Z,3.77
2023-04-29T18:21:24.735Z,5.10
2023-04-29T18:23:55.857Z,5.80
2023-04-29T18:26:26.512Z,4.63
2023-04-29T18:28:56.468Z,4.00
2023-04-29T18:31:27.223Z,3.90
2023-04-29T18:33:55.129Z,3.60
2023-04-29T18:36:26.257Z,3.43
2023-04-29T18:38:54.135Z,5.10
2023-04-29T18:41:22.349Z,3.97
2023-04-29T18:43:51.643Z,3.77
2023-04-29T18:46:19.597Z,5.07
2023-04-29T18:48:47.586Z,4.90
2023-04-29T18:51:15.568Z,3.93
2023-04-29T18:53:43.489Z,4.90
2023-04-29T18:56:11.607Z,5.87
2023-04-29T18:58:39.549Z,6.27
2023-04-29T19:01:08.948Z,13.57
2023-04-29T19:03:37.115Z,8.33
2023-04-29T19:06:05.213Z,8.67
2023-04-29T19:08:33.207Z,9.00
2023-04-29T19:11:01.436Z,15.03
2023-04-29T19:13:29.407Z,14.90
2023-04-29T19:15:57.391Z,15.30
2023-04-29T19:18:26.875Z,14.17
2023-04-29T19:20:56.025Z,15.33
2023-04-29T19:23:24.023Z,19.97
2023-04-29T19:25:51.974Z,30.37
2023-04-29T19:28:19.868Z,41.50
2023-04-29T19:30:47.841Z,41.20
2023-04-29T19:33:15.845Z,48.13
2023-04-29T19:35:45.165Z,48.23
2023-04-29T19:38:13.082Z,52.37
2023-04-29T19:40:40.975Z,57.73
2023-04-29T19:43:09.242Z,55.87
2023-04-29T19:45:37.214Z,68.83
2023-04-29T19:48:05.445Z,56.80
2023-04-29T19:50:33.483Z,57.07
2023-04-29T19:53:02.740Z,62.17
2023-04-29T19:55:30.674Z,60.80
2023-04-29T19:57:58.571Z,61.17
2023-04-29T20:00:27.030Z,70.73
2023-04-29T20:02:58.053Z,86.70
2023-04-29T20:05:26.254Z,77.53
2023-04-29T20:07:54.309Z,78.03
2023-04-29T20:10:23.661Z,73.73
2023-04-29T20:12:51.624Z,75.53
2023-04-29T20:15:19.638Z,72.03
2023-04-29T20:17:47.673Z,71.13
2023-04-29T20:20:15.623Z,62.77
2023-04-29T20:22:43.544Z,63.13
2023-04-29T20:25:11.452Z,71.63
2023-04-29T20:27:41.150Z,64.87
2023-04-29T20:30:12.711Z,56.37
2023-04-29T20:32:40.863Z,60.60
2023-04-29T20:35:09.260Z,58.30
2023-04-29T20:37:37.234Z,60.27
2023-04-29T20:40:06.813Z,58.43
2023-04-29T20:42:34.762Z,56.67
2023-04-29T20:45:04.258Z,52.07
2023-04-29T20:47:32.703Z,54.27
2023-04-29T20:50:00.664Z,53.07
2023-04-29T20:52:28.889Z,54.10
2023-04-29T20:54:59.669Z,47.57
2023-04-29T20:57:27.819Z,41.40
2023-04-29T20:59:55.861Z,49.90
2023-04-29T21:02:25.522Z,48.43
2023-04-29T21:04:53.605Z,45.70
2023-04-29T21:07:21.580Z,46.37
2023-04-29T21:09:50.218Z,43.57
2023-04-29T21:12:18.123Z,42.20
2023-04-29T21:14:46.011Z,40.30
2023-04-29T21:17:13.943Z,41.43
2023-04-29T21:19:43.254Z,38.03
2023-04-29T21:22:13.939Z,38.00
2023-04-29T21:24:41.896Z,36.47
2023-04-29T21:27:09.888Z,36.67
2023-04-29T21:29:40.769Z,37.13
2023-04-29T21:32:08.887Z,35.77
2023-04-29T21:34:36.913Z,34.30
2023-04-29T21:37:06.179Z,40.00
2023-04-29T21:39:34.049Z,34.43
2023-04-29T21:42:03.147Z,32.97
2023-04-29T21:44:31.132Z,32.97
2023-04-29T21:47:00.751Z,29.03
2023-04-29T21:49:28.809Z,30.20
2023-04-29T21:51:56.749Z,32.10
2023-04-29T21:54:26.152Z,28.03
2023-04-29T21:56:54.052Z,29.80
2023-04-29T21:59:22.116Z,28.33
2023-04-29T22:01:59.691Z,29.37
2023-04-29T22:04:28.073Z,29.30
2023-04-29T22:06:56.161Z,25.47
2023-04-29T22:09:25.936Z,23.77
2023-04-29T22:11:53.798Z,27.57
2023-04-29T22:14:21.749Z,24.90
2023-04-29T22:16:49.730Z,23.10
2023-04-29T22:19:17.724Z,25.17
2023-04-29T22:21:45.682Z,21.67
2023-04-29T22:24:15.979Z,23.50
2023-04-29T22:26:45.246Z,22.30
2023-04-29T22:29:13.231Z,23.07
2023-04-29T22:31:41.154Z,21.80
2023-04-29T22:34:09.160Z,20.80
2023-04-29T22:36:37.694Z,22.27
2023-04-29T22:39:05.615Z,20.37
2023-04-29T22:41:33.551Z,19.00
2023-04-29T22:44:05.996Z,18.77
2023-04-29T22:46:34.032Z,18.63
2023-04-29T22:49:02.353Z,19.43
2023-04-29T22:51:30.265Z,17.30
2023-04-29T22:53:58.238Z,18.60
2023-04-29T22:56:28.814Z,17.60
2023-04-29T22:58:56.872Z,16.83
2023-04-29T23:01:26.196Z,19.90
2023-04-29T23:03:54.177Z,17.30
2023-04-29T23:06:22.159Z,16.17
2023-04-29T23:08:50.062Z,15.57
2023-04-29T23:11:17.963Z,16.17
2023-04-29T23:13:45.888Z,15.97
2023-04-29T23:16:13.927Z,14.70
2023-04-29T23:18:43.196Z,15.50
2023-04-29T23:21:11.095Z,14.97
2023-04-29T23:23:39.306Z,12.73
2023-04-29T23:26:07.210Z,13.03
2023-04-29T23:28:35.372Z,13.47
2023-04-29T23:31:03.305Z,13.07
2023-04-29T23:33:31.497Z,13.27
2023-04-29T23:36:00.788Z,12.23
2023-04-29T23:38:28.671Z,11.57
2023-04-29T23:40:56.574Z,12.50
2023-04-29T23:43:24.511Z,12.47
2023-04-29T23:45:52.911Z,13.47
2023-04-29T23:48:20.866Z,13.07
2023-04-29T23:50:48.781Z,11.03
2023-04-29T23:53:18.347Z,11.10
2023-04-29T23:55:46.273Z,11.53
2023-04-29T23:58:14.213Z,9.83
